createdAt,value
2023-05-18T00:00:58.141Z,9.27
2023-05-18T00:03:32.656Z,9.27
2023-05-18T00:06:13.501Z,9.24
2023-05-18T00:09:04.350Z,9.20
2023-05-18T00:11:41.793Z,9.19
2023-05-18T00:14:18.113Z,9.17
2023-05-18T00:16:58.351Z,9.18
2023-05-18T00:19:34.018Z,9.18
2023-05-18T00:22:08.127Z,9.20
2023-05-18T00:24:56.415Z,9.16
2023-05-18T00:27:32.240Z,9.15
2023-05-18T00:30:06.708Z,9.14
2023-05-18T00:32:42.457Z,9.13
2023-05-18T00:35:29.037Z,9.12
2023-05-18T00:38:02.820Z,9.06
2023-05-18T00:40:33.848Z,9.03
2023-05-18T00:43:07.863Z,9.00
2023-05-18T00:45:43.385Z,8.99
2023-05-18T00:48:16.482Z,8.96
2023-05-18T00:50:47.421Z,8.92
2023-05-18T00:53:26.357Z,8.89
2023-05-18T00:56:01.366Z,8.88
2023-05-18T00:58:34.479Z,8.87
2023-05-18T01:01:17.940Z,8.85
2023-05-18T01:04:08.814Z,8.79
2023-05-18T01:07:17.228Z,8.72
2023-05-18T01:09:51.172Z,8.67
2023-05-18T01:12:45.155Z,8.59
2023-05-18T01:15:40.384Z,8.59
2023-05-18T01:18:57.225Z,8.61
2023-05-18T01:22:04.132Z,8.63
2023-05-18T01:24:56.898Z,8.66
2023-05-18T01:27:29.570Z,8.69
2023-05-18T01:30:00.945Z,8.70
2023-05-18T01:32:43.144Z,8.68
2023-05-18T01:35:22.665Z,8.67
2023-05-18T01:37:53.937Z,8.63
2023-05-18T01:40:26.796Z,8.60
2023-05-18T01:43:15.760Z,8.63
2023-05-18T01:46:00.269Z,8.61
2023-05-18T01:48:43.081Z,8.61
2023-05-18T01:51:20.837Z,8.62
2023-05-18T01:54:08.658Z,8.64
2023-05-18T01:56:47.911Z,8.65
2023-05-18T01:59:26.646Z,8.65
2023-05-18T02:02:10.544Z,8.64
2023-05-18T02:04:53.323Z,8.54
2023-05-18T02:07:46.224Z,8.51
2023-05-18T02:10:31.682Z,8.48
2023-05-18T02:13:12.801Z,8.46
2023-05-18T02:15:56.537Z,8.45
2023-05-18T02:18:42.306Z,8.40
2023-05-18T02:21:26.283Z,8.33
2023-05-18T02:24:01.879Z,8.25
2023-05-18T02:26:41.807Z,8.20
2023-05-18T02:29:12.703Z,8.13
2023-05-18T02:31:46.989Z,8.10
2023-05-18T02:34:22.874Z,8.06
2023-05-18T02:37:08.126Z,8.02
2023-05-18T02:39:41.530Z,7.98
2023-05-18T02:42:14.168Z,7.96
2023-05-18T02:44:53.983Z,7.88
2023-05-18T02:47:48.363Z,7.83
2023-05-18T02:50:28.171Z,7.79
2023-05-18T02:53:16.039Z,7.75
2023-05-18T02:56:08.368Z,7.70
2023-05-18T02:58:53.543Z,7.63
2023-05-18T03:01:37.572Z,7.59
2023-05-18T03:04:19.047Z,7.56
2023-05-18T03:06:57.845Z,7.52
2023-05-18T03:09:36.531Z,7.51
2023-05-18T03:12:12.003Z,7.48
2023-05-18T03:14:53.120Z,7.45
2023-05-18T03:17:30.964Z,7.44
2023-05-18T03:20:07.682Z,7.44
2023-05-18T03:22:46.983Z,7.45
2023-05-18T03:25:29.772Z,7.43
2023-05-18T03:28:11.873Z,7.42
2023-05-18T03:30:46.078Z,7.40
2023-05-18T03:33:17.328Z,7.39
2023-05-18T03:35:52.873Z,7.36
2023-05-18T03:38:25.950Z,7.34
2023-05-18T03:41:11.858Z,7.33
2023-05-18T03:43:53.495Z,7.31
2023-05-18T03:46:29.332Z,7.28
2023-05-18T03:49:11.445Z,7.26
2023-05-18T03:51:49.823Z,7.23
2023-05-18T03:54:22.777Z,7.25
2023-05-18T03:56:58.689Z,7.26
2023-05-18T03:59:43.897Z,7.28
2023-05-18T04:02:19.315Z,7.28
2023-05-18T04:04:55.025Z,7.27
2023-05-18T04:07:35.388Z,7.29
2023-05-18T04:10:12.836Z,7.31
2023-05-18T04:12:50.571Z,7.30
2023-05-18T04:15:28.218Z,7.31
2023-05-18T04:18:14.245Z,7.30
2023-05-18T04:20:52.379Z,7.32
2023-05-18T04:23:30.264Z,7.33
2023-05-18T04:26:11.596Z,7.41
2023-05-18T04:29:06.197Z,7.51
2023-05-18T04:31:54.614Z,7.55
2023-05-18T04:34:26.962Z,7.59
2023-05-18T04:37:05.700Z,7.67
2023-05-18T04:39:45.132Z,7.70
2023-05-18T04:42:36.429Z,7.76
2023-05-18T04:45:20.124Z,7.87
2023-05-18T04:48:05.244Z,7.92
2023-05-18T04:50:45.683Z,8.06
2023-05-18T04:53:28.873Z,8.27
2023-05-18T04:56:11.168Z,8.57
2023-05-18T04:58:52.873Z,8.80
2023-05-18T05:01:32.030Z,8.93
2023-05-18T05:04:18.436Z,9.01
2023-05-18T05:06:55.137Z,9.07
2023-05-18T05:09:34.686Z,9.13
2023-05-18T05:12:12.609Z,9.13
2023-05-18T05:14:49.517Z,9.15
2023-05-18T05:17:25.702Z,9.20
2023-05-18T05:20:02.407Z,9.32
2023-05-18T05:22:34.108Z,9.47
2023-05-18T05:25:06.419Z,9.63
2023-05-18T05:28:01.627Z,9.87
2023-05-18T05:30:33.892Z,10.18
2023-05-18T05:33:09.710Z,10.43
2023-05-18T05:35:51.438Z,10.72
2023-05-18T05:38:33.809Z,11.07
2023-05-18T05:41:04.083Z,11.47
2023-05-18T05:44:00.012Z,11.80
2023-05-18T05:46:35.907Z,12.23
2023-05-18T05:49:24.661Z,12.64
2023-05-18T05:52:09.921Z,12.90
2023-05-18T05:55:09.785Z,13.03
2023-05-18T05:58:11.706Z,13.17
2023-05-18T06:00:44.169Z,13.32
2023-05-18T06:03:35.127Z,13.36
2023-05-18T06:06:30.976Z,13.32
2023-05-18T06:09:05.069Z,13.27
2023-05-18T06:11:42.392Z,13.24
2023-05-18T06:14:15.738Z,13.22
2023-05-18T06:17:07.109Z,13.26
2023-05-18T06:19:46.227Z,13.23
2023-05-18T06:22:19.078Z,13.18
2023-05-18T06:25:28.949Z,13.10
2023-05-18T06:28:18.793Z,13.01
2023-05-18T06:30:54.746Z,13.01
2023-05-18T06:33:41.163Z,13.06
2023-05-18T06:36:14.240Z,13.28
2023-05-18T06:38:59.598Z,13.51
2023-05-18T06:41:31.947Z,13.79
2023-05-18T06:44:07.051Z,13.99
2023-05-18T06:46:45.901Z,14.33
2023-05-18T06:49:27.891Z,14.71
2023-05-18T06:52:02.720Z,14.86
2023-05-18T06:54:33.553Z,15.01
2023-05-18T06:57:07.910Z,15.18
2023-05-18T06:59:40.882Z,15.29
2023-05-18T07:02:15.993Z,15.36
2023-05-18T07:04:47.315Z,15.38
2023-05-18T07:07:23.461Z,15.29
2023-05-18T07:09:58.726Z,15.27
2023-05-18T07:12:34.897Z,15.14
2023-05-18T07:15:22.800Z,14.94
2023-05-18T07:17:57.059Z,14.92
2023-05-18T07:20:29.470Z,15.08
2023-05-18T07:23:10.083Z,15.19
2023-05-18T07:25:49.587Z,15.25
2023-05-18T07:28:23.340Z,15.30
2023-05-18T07:30:59.685Z,15.26
2023-05-18T07:33:31.537Z,15.15
2023-05-18T07:36:10.084Z,15.09
2023-05-18T07:38:41.404Z,15.40
2023-05-18T07:41:12.927Z,15.71
2023-05-18T07:43:44.859Z,15.81
2023-05-18T07:46:17.649Z,15.78
2023-05-18T07:48:51.421Z,15.84
2023-05-18T07:51:21.609Z,15.97
2023-05-18T07:53:55.101Z,16.13
2023-05-18T07:56:26.285Z,16.22
2023-05-18T07:58:56.095Z,16.41
2023-05-18T08:01:30.544Z,16.65
2023-05-18T08:04:04.893Z,16.83
2023-05-18T08:06:37.294Z,17.06
2023-05-18T08:09:17.529Z,17.20
2023-05-18T08:11:47.716Z,17.50
2023-05-18T08:14:18.063Z,17.82
2023-05-18T08:16:59.215Z,18.08
2023-05-18T08:19:42.798Z,18.33
2023-05-18T08:22:13.164Z,18.44
2023-05-18T08:24:53.415Z,18.59
2023-05-18T08:27:38.115Z,18.66
2023-05-18T08:30:19.349Z,18.68
2023-05-18T08:32:49.537Z,18.72
2023-05-18T08:35:19.821Z,18.95
2023-05-18T08:37:51.120Z,19.23
2023-05-18T08:40:37.621Z,19.48
2023-05-18T08:43:23.334Z,19.66
2023-05-18T08:46:31.164Z,19.73
2023-05-18T08:49:09.780Z,19.71
2023-05-18T08:51:42.508Z,19.50
2023-05-18T08:54:16.133Z,19.40
2023-05-18T08:56:47.300Z,19.60
2023-05-18T08:59:23.599Z,19.78
2023-05-18T09:01:55.895Z,19.91
2023-05-18T09:04:29.962Z,19.99
2023-05-18T09:07:02.863Z,19.99
2023-05-18T09:09:45.587Z,20.04
2023-05-18T09:12:21.672Z,20.29
2023-05-18T09:15:00.645Z,20.19
2023-05-18T09:17:32.906Z,20.15
2023-05-18T09:20:06.110Z,20.09
2023-05-18T09:22:44.726Z,20.07
2023-05-18T09:25:19.960Z,20.13
2023-05-18T09:27:54.970Z,20.06
2023-05-18T09:30:40.205Z,20.00
2023-05-18T09:33:22.034Z,20.26
2023-05-18T09:35:52.357Z,20.49
2023-05-18T09:38:25.063Z,20.60
2023-05-18T09:40:54.578Z,20.65
2023-05-18T09:43:24.038Z,20.73
2023-05-18T09:45:53.460Z,20.87
2023-05-18T09:48:25.315Z,21.08
2023-05-18T09:50:55.009Z,21.27
2023-05-18T09:53:24.382Z,21.30
2023-05-18T09:55:53.896Z,21.39
2023-05-18T09:58:35.531Z,21.51
2023-05-18T10:01:08.352Z,21.50
2023-05-18T10:03:41.971Z,21.57
2023-05-18T10:06:20.292Z,21.61
2023-05-18T10:08:53.658Z,21.64
2023-05-18T10:11:24.051Z,21.51
2023-05-18T10:13:58.957Z,21.22
2023-05-18T10:16:29.818Z,21.14
2023-05-18T10:19:12.607Z,21.10
2023-05-18T10:21:44.760Z,21.22
2023-05-18T10:24:28.361Z,21.31
2023-05-18T10:27:01.752Z,20.85
2023-05-18T10:29:38.054Z,20.31
2023-05-18T10:32:24.640Z,19.91
2023-05-18T10:34:58.864Z,19.57
2023-05-18T10:37:31.404Z,19.50
2023-05-18T10:40:05.093Z,19.54
2023-05-18T10:42:38.272Z,19.32
2023-05-18T10:45:14.941Z,19.01
2023-05-18T10:47:49.143Z,18.80
2023-05-18T10:50:21.185Z,18.67
2023-05-18T10:52:59.067Z,18.72
2023-05-18T10:55:32.073Z,18.70
2023-05-18T10:58:16.987Z,18.58
2023-05-18T11:01:03.906Z,18.37
2023-05-18T11:03:34.494Z,18.14
2023-05-18T11:06:15.627Z,17.90
2023-05-18T11:09:04.446Z,17.75
2023-05-18T11:11:58.454Z,17.59
2023-05-18T11:14:36.441Z,17.44
2023-05-18T11:17:25.606Z,17.36
2023-05-18T11:20:18.432Z,17.26
2023-05-18T11:23:06.824Z,17.16
2023-05-18T11:25:39.171Z,17.11
2023-05-18T11:28:13.824Z,17.18
2023-05-18T11:30:50.442Z,17.13
2023-05-18T11:33:36.967Z,17.06
2023-05-18T11:36:18.165Z,17.03
2023-05-18T11:39:07.483Z,17.00
2023-05-18T11:41:42.126Z,16.88
2023-05-18T11:44:13.361Z,16.71
2023-05-18T11:47:00.247Z,16.64
2023-05-18T11:49:37.445Z,16.53
2023-05-18T11:52:16.654Z,16.55
2023-05-18T11:54:49.949Z,16.65
2023-05-18T11:57:45.090Z,16.62
2023-05-18T12:00:32.822Z,16.65
2023-05-18T12:03:06.503Z,16.66
2023-05-18T12:05:40.788Z,16.61
2023-05-18T12:08:12.886Z,16.72
2023-05-18T12:10:52.337Z,16.80
2023-05-18T12:13:28.403Z,16.89
2023-05-18T12:16:02.154Z,16.91
2023-05-18T12:18:38.053Z,16.90
2023-05-18T12:21:09.333Z,16.81
2023-05-18T12:23:41.865Z,16.74
2023-05-18T12:26:15.012Z,16.64
2023-05-18T12:28:58.273Z,16.58
2023-05-18T12:31:28.338Z,16.63
2023-05-18T12:34:03.814Z,16.82
2023-05-18T12:36:33.864Z,17.00
2023-05-18T12:39:03.318Z,17.08
2023-05-18T12:41:33.080Z,17.08
2023-05-18T12:44:02.685Z,17.03
2023-05-18T12:46:32.443Z,16.93
2023-05-18T12:49:02.085Z,16.82
2023-05-18T12:51:38.994Z,16.81
2023-05-18T12:54:08.796Z,16.84
2023-05-18T12:57:02.544Z,16.89
2023-05-18T12:59:32.183Z,16.98
2023-05-18T13:02:01.926Z,17.08
2023-05-18T13:04:38.115Z,17.22
2023-05-18T13:07:12.868Z,17.28
2023-05-18T13:09:47.123Z,17.24
2023-05-18T13:12:17.320Z,17.20
2023-05-18T13:14:50.808Z,17.20
2023-05-18T13:17:25.933Z,17.17
2023-05-18T13:19:58.820Z,17.11
2023-05-18T13:22:29.478Z,17.04
2023-05-18T13:25:02.658Z,17.06
2023-05-18T13:27:38.773Z,17.09
2023-05-18T13:30:09.399Z,17.08
2023-05-18T13:32:39.615Z,17.14
2023-05-18T13:35:10.329Z,17.18
2023-05-18T13:37:41.602Z,17.20
2023-05-18T13:40:11.408Z,17.20
2023-05-18T13:42:41.477Z,17.23
2023-05-18T13:45:15.184Z,17.11
2023-05-18T13:47:52.767Z,17.09
2023-05-18T13:50:30.945Z,17.17
2023-05-18T13:53:07.922Z,17.32
2023-05-18T13:55:49.481Z,17.34
2023-05-18T13:58:29.410Z,17.20
2023-05-18T14:01:06.628Z,17.22
2023-05-18T14:03:37.090Z,17.31
2023-05-18T14:06:10.791Z,17.41
2023-05-18T14:09:04.700Z,17.47
2023-05-18T14:11:38.847Z,17.53
2023-05-18T14:14:12.577Z,17.47
2023-05-18T14:16:53.289Z,17.35
2023-05-18T14:22:57.607Z,17.31
2023-05-18T14:25:38.142Z,17.40
2023-05-18T14:28:12.254Z,17.41
2023-05-18T14:30:46.121Z,17.41
2023-05-18T14:33:47.448Z,17.37
2023-05-18T14:36:21.829Z,17.29
2023-05-18T14:38:54.930Z,17.32
2023-05-18T14:42:13.993Z,17.43
2023-05-18T14:44:53.276Z,17.61
2023-05-18T14:47:40.937Z,17.74
2023-05-18T14:50:21.222Z,17.74
2023-05-18T14:53:06.072Z,17.71
2023-05-18T14:56:29.846Z,17.70
2023-05-18T14:59:27.073Z,17.68
2023-05-18T15:01:59.603Z,17.67
2023-05-18T15:04:33.075Z,17.71
2023-05-18T15:07:06.276Z,17.69
2023-05-18T15:09:41.528Z,17.62
2023-05-18T15:12:21.572Z,17.51
2023-05-18T15:14:56.999Z,17.32
2023-05-18T15:17:27.387Z,17.22
2023-05-18T15:19:58.655Z,17.20
2023-05-18T15:22:29.595Z,17.18
2023-05-18T15:25:07.698Z,17.12
2023-05-18T15:27:40.422Z,17.05
2023-05-18T15:30:13.483Z,16.98
2023-05-18T15:32:53.766Z,16.82
2023-05-18T15:35:39.215Z,16.66
2023-05-18T15:38:14.776Z,16.48
2023-05-18T15:41:14.643Z,16.43
2023-05-18T15:43:57.933Z,16.35
2023-05-18T15:46:36.905Z,16.29
2023-05-18T15:49:08.590Z,16.23
2023-05-18T15:51:38.700Z,16.21
2023-05-18T15:54:09.429Z,16.20
2023-05-18T15:56:40.241Z,16.16
2023-05-18T15:59:14.979Z,16.09
2023-05-18T16:02:00.141Z,16.05
2023-05-18T16:04:47.073Z,16.04
2023-05-18T16:07:45.940Z,16.05
2023-05-18T16:10:47.268Z,16.00
2023-05-18T16:13:27.616Z,15.97
2023-05-18T16:16:01.112Z,15.96
2023-05-18T16:18:33.534Z,15.94
2023-05-18T16:21:20.032Z,15.93
2023-05-18T16:23:57.676Z,15.89
2023-05-18T16:26:39.771Z,15.89
2023-05-18T16:29:10.818Z,15.86
2023-05-18T16:31:55.518Z,15.84
2023-05-18T16:34:31.877Z,15.81
2023-05-18T16:37:11.072Z,15.77
2023-05-18T16:39:49.638Z,15.73
2023-05-18T16:42:36.695Z,15.72
2023-05-18T16:45:10.066Z,15.72
2023-05-18T16:47:45.349Z,15.61
2023-05-18T16:50:20.128Z,15.60
2023-05-18T16:53:40.326Z,15.58
2023-05-18T16:56:45.853Z,15.60
2023-05-18T16:59:28.100Z,15.61
2023-05-18T17:02:01.878Z,15.62
2023-05-18T17:04:41.903Z,15.63
2023-05-18T17:07:21.190Z,15.63
2023-05-18T17:10:00.409Z,15.59
2023-05-18T17:12:37.201Z,15.50
2023-05-18T17:15:57.316Z,15.46
2023-05-18T17:18:31.985Z,15.38
2023-05-18T17:21:08.691Z,15.31
2023-05-18T17:23:53.559Z,15.24
2023-05-18T17:27:17.221Z,15.19
2023-05-18T17:30:04.536Z,15.12
2023-05-18T17:32:39.320Z,15.02
2023-05-18T17:35:26.387Z,14.96
2023-05-18T17:38:18.940Z,14.86
2023-05-18T17:40:56.933Z,14.77
2023-05-18T17:43:33.516Z,14.73
2023-05-18T17:46:13.035Z,14.68
2023-05-18T17:48:50.445Z,14.61
2023-05-18T17:51:32.020Z,14.59
2023-05-18T17:54:07.503Z,14.53
2023-05-18T17:57:00.826Z,14.46
2023-05-18T17:59:50.358Z,14.36
2023-05-18T18:02:44.899Z,14.31
2023-05-18T18:05:50.961Z,14.21
2023-05-18T18:08:35.602Z,14.14
2023-05-18T18:11:10.541Z,14.08
2023-05-18T18:14:41.917Z,14.02
2023-05-18T18:18:03.929Z,13.97
2023-05-18T18:24:16.384Z,13.88
2023-05-18T18:33:13.253Z,13.85
2023-05-18T18:35:11.470Z,13.77
2023-05-18T18:38:02.499Z,13.74
2023-05-18T18:40:43.503Z,13.73
2023-05-18T18:43:27.103Z,13.71
2023-05-18T18:46:30.934Z,13.68
2023-05-18T18:49:12.628Z,13.68
2023-05-18T18:52:03.021Z,13.67
2023-05-18T18:55:04.654Z,13.68
2023-05-18T18:57:42.192Z,13.67
2023-05-18T19:00:45.674Z,13.64
2023-05-18T19:03:53.353Z,13.56
2023-05-18T19:06:41.125Z,13.49
2023-05-18T19:09:33.341Z,13.42
2023-05-18T19:12:31.596Z,13.34
2023-05-18T19:15:27.346Z,13.31
2023-05-18T19:18:04.306Z,13.27
2023-05-18T19:20:54.128Z,13.26
2023-05-18T19:23:30.269Z,13.24
2023-05-18T19:26:02.556Z,13.24
2023-05-18T19:28:38.769Z,13.22
2023-05-18T19:31:29.028Z,13.19
2023-05-18T19:34:18.764Z,13.13
2023-05-18T19:36:54.880Z,13.10
2023-05-18T19:39:36.911Z,13.07
2023-05-18T19:45:36.934Z,12.98
2023-05-18T19:48:12.238Z,12.98
2023-05-18T19:50:50.498Z,12.98
2023-05-18T19:53:37.310Z,12.96
2023-05-18T19:56:15.440Z,12.94
2023-05-18T19:58:58.993Z,12.90
2023-05-18T20:14:05.071Z,12.60
2023-05-18T20:16:42.615Z,12.58
2023-05-18T20:19:20.046Z,12.58
2023-05-18T20:21:50.714Z,12.58
2023-05-18T20:24:28.388Z,12.58
2023-05-18T20:27:08.665Z,12.57
2023-05-18T20:29:59.407Z,12.54
2023-05-18T20:32:30.815Z,12.50
2023-05-18T20:35:03.989Z,12.47
2023-05-18T20:37:35.071Z,12.43
2023-05-18T20:40:09.687Z,12.29
2023-05-18T20:42:40.965Z,12.27
2023-05-18T20:45:18.115Z,12.26
2023-05-18T20:48:02.092Z,12.25
2023-05-18T20:50:33.909Z,12.22
2023-05-18T20:53:13.056Z,12.19
2023-05-18T20:55:50.520Z,12.17
2023-05-18T20:58:21.943Z,12.14
2023-05-18T21:00:56.695Z,12.12
2023-05-18T21:03:39.150Z,12.06
2023-05-18T21:06:13.254Z,11.99
2023-05-18T21:08:46.020Z,11.92
2023-05-18T21:11:16.555Z,11.75
2023-05-18T21:13:49.287Z,11.70
2023-05-18T21:16:19.607Z,11.66
2023-05-18T21:18:50.079Z,11.65
2023-05-18T21:21:21.188Z,11.64
2023-05-18T21:23:51.385Z,11.64
2023-05-18T21:26:22.259Z,11.64
2023-05-18T21:28:52.721Z,11.63
2023-05-18T21:31:22.958Z,11.63
2023-05-18T21:33:53.269Z,11.62
2023-05-18T21:36:35.885Z,11.61
2023-05-18T21:39:09.806Z,11.61
2023-05-18T21:41:40.816Z,11.61
2023-05-18T21:44:11.692Z,11.58
2023-05-18T21:46:41.714Z,11.46
2023-05-18T21:49:13.572Z,11.43
2023-05-18T21:51:43.998Z,11.42
2023-05-18T21:54:14.258Z,11.42
2023-05-18T21:56:44.724Z,11.43
2023-05-18T21:59:15.341Z,11.44
2023-05-18T22:01:45.593Z,11.42
2023-05-18T22:04:15.951Z,11.41
2023-05-18T22:06:47.735Z,11.42
2023-05-18T22:09:18.187Z,11.42
2023-05-18T22:11:48.137Z,11.42
2023-05-18T22:14:23.339Z,11.43
2023-05-18T22:16:53.849Z,11.43
2023-05-18T22:19:25.246Z,11.44
2023-05-18T22:21:55.940Z,11.44
2023-05-18T22:24:26.187Z,11.44
2023-05-18T22:26:56.827Z,11.44
2023-05-18T22:29:29.730Z,11.45
2023-05-18T22:32:00.281Z,11.45
2023-05-18T22:34:33.978Z,11.46
2023-05-18T22:37:13.741Z,11.45
2023-05-18T22:39:44.887Z,11.44
2023-05-18T22:42:15.283Z,11.42
2023-05-18T22:44:48.901Z,11.41
2023-05-18T22:47:21.940Z,11.38
2023-05-18T22:49:53.227Z,11.36
2023-05-18T22:52:35.642Z,11.35
2023-05-18T22:55:16.880Z,11.32
2023-05-18T22:57:47.703Z,11.31
2023-05-18T23:00:18.508Z,11.30
2023-05-18T23:02:48.444Z,11.31
2023-05-18T23:05:22.203Z,11.31
2023-05-18T23:07:52.677Z,11.31
2023-05-18T23:10:26.402Z,11.32
2023-05-18T23:13:02.346Z,11.32
2023-05-18T23:15:33.634Z,11.35
2023-05-18T23:18:09.615Z,11.34
2023-05-18T23:20:40.101Z,11.36
2023-05-18T23:23:15.018Z,11.38
2023-05-18T23:25:50.924Z,11.40
2023-05-18T23:28:21.474Z,11.42
2023-05-18T23:30:51.849Z,11.43
2023-05-18T23:33:22.176Z,11.42
2023-05-18T23:35:56.021Z,11.41
2023-05-18T23:38:35.232Z,11.39
2023-05-18T23:41:08.566Z,11.38
2023-05-18T23:43:40.022Z,11.39
2023-05-18T23:46:11.296Z,11.44
2023-05-18T23:48:50.777Z,11.35
2023-05-18T23:51:30.275Z,11.37
2023-05-18T23:54:01.528Z,11.39
2023-05-18T23:56:33.689Z,11.41
2023-05-18T23:59:04.507Z,11.43
